createdAt,value
2022-08-09T00:00:56.434Z,26.30
2022-08-09T00:04:03.472Z,26.30
2022-08-09T00:06:53.353Z,26.20
2022-08-09T00:09:41.784Z,26.20
2022-08-09T00:12:34.575Z,26.10
2022-08-09T00:15:26.810Z,26.10
2022-08-09T00:18:34.691Z,26.00
2022-08-09T00:21:23.623Z,26.00
2022-08-09T00:24:12.668Z,26.00
2022-08-09T00:27:03.869Z,25.90
2022-08-09T00:30:16.299Z,25.90
2022-08-09T00:33:02.386Z,25.90
2022-08-09T00:35:52.313Z,25.90
2022-08-09T00:38:42.867Z,25.80
2022-08-09T00:44:11.082Z,25.80
2022-08-09T00:44:41.980Z,25.70
2022-08-09T00:47:35.924Z,25.70
2022-08-09T00:50:29.741Z,25.60
2022-08-09T00:53:18.747Z,25.60
2022-08-09T00:56:13.600Z,25.60
2022-08-09T00:59:02.652Z,25.60
2022-08-09T01:01:51.240Z,25.50
2022-08-09T01:04:50.660Z,25.60
2022-08-09T01:08:00.477Z,25.50
2022-08-09T01:10:55.057Z,25.50
2022-08-09T01:13:59.375Z,25.50
2022-08-09T01:16:49.425Z,25.50
2022-08-09T01:19:57.028Z,25.50
2022-08-09T01:24:03.012Z,25.40
2022-08-09T01:26:54.133Z,25.50
2022-08-09T01:29:55.537Z,25.40
2022-08-09T01:32:46.851Z,25.40
2022-08-09T01:35:42.340Z,25.30
2022-08-09T01:38:32.536Z,25.30
2022-08-09T01:41:25.719Z,25.30
2022-08-09T01:44:16.951Z,25.30
2022-08-09T01:47:11.586Z,25.20
2022-08-09T01:50:00.384Z,25.20
2022-08-09T01:52:55.121Z,25.20
2022-08-09T01:55:43.610Z,25.20
2022-08-09T01:58:32.230Z,25.20
2022-08-09T02:01:58.333Z,25.10
2022-08-09T02:04:31.839Z,25.10
2022-08-09T02:08:41.306Z,25.10
2022-08-09T02:10:32.631Z,25.00
2022-08-09T02:13:26.081Z,25.00
2022-08-09T02:16:33.869Z,25.00
2022-08-09T02:19:35.122Z,25.00
2022-08-09T02:22:35.919Z,24.90
2022-08-09T02:25:29.778Z,24.90
2022-08-09T02:28:24.136Z,24.90
2022-08-09T02:31:15.036Z,25.00
2022-08-09T02:34:13.333Z,24.90
2022-08-09T02:37:16.231Z,24.90
2022-08-09T02:40:09.477Z,24.80
2022-08-09T02:42:59.905Z,24.90
2022-08-09T02:45:48.575Z,24.90
2022-08-09T02:48:40.086Z,24.80
2022-08-09T02:51:40.467Z,24.80
2022-08-09T02:54:29.189Z,24.80
2022-08-09T02:57:23.109Z,24.80
2022-08-09T03:00:25.183Z,24.80
2022-08-09T03:03:21.376Z,24.70
2022-08-09T03:06:14.523Z,24.70
2022-08-09T03:09:04.687Z,24.70
2022-08-09T03:12:08.521Z,24.60
2022-08-09T03:14:59.700Z,24.60
2022-08-09T03:17:58.661Z,24.50
2022-08-09T03:20:47.393Z,24.40
2022-08-09T03:23:35.884Z,24.40
2022-08-09T03:26:30.893Z,24.30
2022-08-09T03:29:23.223Z,24.20
2022-08-09T03:32:11.869Z,24.10
2022-08-09T03:35:00.465Z,24.00
2022-08-09T03:37:54.422Z,24.00
2022-08-09T03:40:45.191Z,23.90
2022-08-09T03:43:36.524Z,23.80
2022-08-09T03:46:29.266Z,23.70
2022-08-09T03:49:19.413Z,23.70
2022-08-09T03:52:12.429Z,23.60
2022-08-09T03:55:01.177Z,23.50
2022-08-09T03:58:06.552Z,23.40
2022-08-09T04:01:04.525Z,23.40
2022-08-09T04:04:01.251Z,23.30
2022-08-09T04:06:50.849Z,23.20
2022-08-09T04:09:47.971Z,23.10
2022-08-09T04:12:45.236Z,23.10
2022-08-09T04:16:18.722Z,23.00
2022-08-09T04:18:43.766Z,22.90
2022-08-09T04:21:36.226Z,22.80
2022-08-09T04:24:27.079Z,22.80
2022-08-09T04:27:15.517Z,22.70
2022-08-09T04:30:04.050Z,22.60
2022-08-09T04:32:52.612Z,22.50
2022-08-09T04:35:44.050Z,22.50
2022-08-09T04:38:32.500Z,22.40
2022-08-09T04:41:23.701Z,22.30
2022-08-09T04:44:14.432Z,22.30
2022-08-09T04:47:04.324Z,22.20
2022-08-09T04:49:55.863Z,22.20
2022-08-09T04:52:45.766Z,22.10
2022-08-09T04:55:39.613Z,22.10
2022-08-09T04:58:40.908Z,22.00
2022-08-09T05:01:30.405Z,22.00
2022-08-09T05:04:21.861Z,22.00
2022-08-09T05:07:20.065Z,22.00
2022-08-09T05:10:12.927Z,22.00
2022-08-09T05:13:03.883Z,21.90
2022-08-09T05:15:56.521Z,21.90
2022-08-09T05:18:58.187Z,21.90
2022-08-09T05:21:55.273Z,21.90
2022-08-09T05:24:44.459Z,21.90
2022-08-09T05:27:45.616Z,21.90
2022-08-09T05:30:36.500Z,21.90
2022-08-09T05:33:26.455Z,22.00
2022-08-09T05:36:21.517Z,22.10
2022-08-09T05:39:29.076Z,22.20
2022-08-09T05:42:21.805Z,22.40
2022-08-09T05:45:14.709Z,22.60
2022-08-09T05:48:03.355Z,23.00
2022-08-09T05:51:12.065Z,23.50
2022-08-09T05:54:00.420Z,24.10
2022-08-09T05:56:54.934Z,24.70
2022-08-09T05:59:43.971Z,25.30
2022-08-09T06:02:35.525Z,25.90
2022-08-09T06:05:30.937Z,26.40
2022-08-09T06:08:32.973Z,26.90
2022-08-09T06:11:24.376Z,27.40
2022-08-09T06:14:29.139Z,27.60
2022-08-09T06:17:17.637Z,28.10
2022-08-09T06:20:08.712Z,28.40
2022-08-09T06:22:57.918Z,28.70
2022-08-09T06:25:46.903Z,28.90
2022-08-09T06:28:37.248Z,29.00
2022-08-09T06:31:30.509Z,29.10
2022-08-09T06:34:22.875Z,29.20
2022-08-09T06:37:13.429Z,29.20
2022-08-09T06:40:16.330Z,29.10
2022-08-09T06:43:11.462Z,28.80
2022-08-09T06:46:06.772Z,28.60
2022-08-09T06:48:59.678Z,28.20
2022-08-09T06:51:48.589Z,27.90
2022-08-09T06:54:38.746Z,27.70
2022-08-09T06:58:01.495Z,27.50
2022-08-09T07:00:48.872Z,27.40
2022-08-09T07:03:52.216Z,27.40
2022-08-09T07:06:42.538Z,27.30
2022-08-09T07:09:55.582Z,27.20
2022-08-09T07:12:42.338Z,27.20
2022-08-09T07:16:36.729Z,27.10
2022-08-09T07:18:39.693Z,27.10
2022-08-09T07:21:30.906Z,27.20
2022-08-09T07:24:19.542Z,27.30
2022-08-09T07:27:33.582Z,27.40
2022-08-09T07:30:21.701Z,27.50
2022-08-09T07:33:16.689Z,27.60
2022-08-09T07:36:06.065Z,27.80
2022-08-09T07:39:01.031Z,28.00
2022-08-09T07:41:50.738Z,28.10
2022-08-09T07:44:51.245Z,28.30
2022-08-09T07:48:00.436Z,28.50
2022-08-09T07:50:53.114Z,28.60
2022-08-09T07:54:07.350Z,28.80
2022-08-09T07:56:56.553Z,28.90
2022-08-09T07:59:52.235Z,29.00
2022-08-09T08:03:04.670Z,29.20
2022-08-09T08:05:57.289Z,29.40
2022-08-09T08:09:03.708Z,29.60
2022-08-09T08:12:11.988Z,29.70
2022-08-09T08:15:01.808Z,29.70
2022-08-09T08:17:53.395Z,29.80
2022-08-09T08:20:45.223Z,30.00
2022-08-09T08:23:34.974Z,30.20
2022-08-09T08:26:26.632Z,30.30
2022-08-09T08:29:39.537Z,30.50
2022-08-09T08:32:34.065Z,30.70
2022-08-09T08:35:22.938Z,30.90
2022-08-09T08:38:12.764Z,31.00
2022-08-09T08:41:02.010Z,31.20
2022-08-09T08:43:57.248Z,31.40
2022-08-09T08:46:59.798Z,31.60
2022-08-09T08:49:51.884Z,31.70
2022-08-09T08:52:59.605Z,32.00
2022-08-09T08:55:52.708Z,32.10
2022-08-09T08:58:44.420Z,32.20
2022-08-09T09:01:44.704Z,32.40
2022-08-09T09:04:47.733Z,32.60
2022-08-09T09:07:42.233Z,32.70
2022-08-09T09:10:31.887Z,32.80
2022-08-09T09:13:21.697Z,32.90
2022-08-09T09:16:11.899Z,33.00
2022-08-09T09:22:12.570Z,33.10
2022-08-09T09:26:02.186Z,33.20
2022-08-09T09:28:10.883Z,33.20
2022-08-09T09:31:01.590Z,33.30
2022-08-09T09:33:56.816Z,33.40
2022-08-09T09:36:51.047Z,33.50
2022-08-09T09:39:55.574Z,33.60
2022-08-09T09:42:55.824Z,33.60
2022-08-09T09:45:57.607Z,33.80
2022-08-09T09:49:01.696Z,33.90
2022-08-09T09:51:51.240Z,34.00
2022-08-09T09:54:43.085Z,34.00
2022-08-09T09:58:04.103Z,34.00
2022-08-09T10:00:55.482Z,34.00
2022-08-09T10:03:58.044Z,34.00
2022-08-09T10:06:52.038Z,34.00
2022-08-09T10:09:54.806Z,34.00
2022-08-09T10:12:51.821Z,34.10
2022-08-09T10:16:08.953Z,34.10
2022-08-09T10:18:59.989Z,34.10
2022-08-09T10:21:52.257Z,34.20
2022-08-09T10:24:41.630Z,34.30
2022-08-09T10:27:38.472Z,34.50
2022-08-09T10:34:08.704Z,34.70
2022-08-09T10:36:45.528Z,34.80
2022-08-09T10:39:40.881Z,34.90
2022-08-09T10:42:37.645Z,34.90
2022-08-09T10:45:31.745Z,34.90
2022-08-09T10:48:30.646Z,34.90
2022-08-09T10:51:29.624Z,35.00
2022-08-09T10:54:29.659Z,35.10
2022-08-09T10:57:19.538Z,35.10
2022-08-09T11:00:56.944Z,35.10
2022-08-09T11:04:30.564Z,35.00
2022-08-09T11:07:56.656Z,35.00
2022-08-09T11:11:00.582Z,35.00
2022-08-09T11:14:28.435Z,35.00
2022-08-09T11:17:45.408Z,35.00
2022-08-09T11:20:43.305Z,35.00
2022-08-09T11:23:31.754Z,35.00
2022-08-09T11:26:39.799Z,35.10
2022-08-09T11:30:05.681Z,35.20
2022-08-09T11:33:09.144Z,35.40
2022-08-09T11:36:00.143Z,35.50
2022-08-09T11:39:01.876Z,35.50
2022-08-09T11:41:53.599Z,35.50
2022-08-09T11:44:48.335Z,35.50
2022-08-09T11:47:47.371Z,35.50
2022-08-09T11:52:48.617Z,35.50
2022-08-09T11:54:27.732Z,35.50
2022-08-09T11:58:00.999Z,35.50
2022-08-09T12:00:52.852Z,35.50
2022-08-09T12:03:56.579Z,35.60
2022-08-09T12:06:55.831Z,35.60
2022-08-09T12:09:50.598Z,35.70
2022-08-09T12:12:47.334Z,35.80
2022-08-09T12:15:49.761Z,35.80
2022-08-09T12:18:43.799Z,35.90
2022-08-09T12:21:50.157Z,36.00
2022-08-09T12:24:39.766Z,36.00
2022-08-09T12:28:58.460Z,36.00
2022-08-09T12:30:40.092Z,36.00
2022-08-09T12:33:50.936Z,36.00
2022-08-09T12:36:50.567Z,36.00
2022-08-09T12:39:39.462Z,35.90
2022-08-09T12:42:28.101Z,35.80
2022-08-09T12:45:32.305Z,35.80
2022-08-09T12:48:33.774Z,35.80
2022-08-09T12:51:52.856Z,35.80
2022-08-09T12:57:41.083Z,35.90
2022-08-09T13:00:34.299Z,36.00
2022-08-09T13:03:53.123Z,36.10
2022-08-09T13:06:39.013Z,36.10
2022-08-09T13:09:30.565Z,36.20
2022-08-09T13:12:19.822Z,36.20
2022-08-09T13:15:12.935Z,36.30
2022-08-09T13:18:06.087Z,36.30
2022-08-09T13:22:33.823Z,36.40
2022-08-09T13:24:42.635Z,36.40
2022-08-09T13:27:29.307Z,36.50
2022-08-09T13:30:50.035Z,36.50
2022-08-09T13:33:52.810Z,36.60
2022-08-09T13:36:43.550Z,36.50
2022-08-09T13:41:54.350Z,36.60
2022-08-09T13:42:41.787Z,36.50
2022-08-09T13:46:42.506Z,36.40
2022-08-09T13:48:42.202Z,36.40
2022-08-09T13:51:30.775Z,36.40
2022-08-09T13:54:20.426Z,36.40
2022-08-09T13:57:37.281Z,36.40
2022-08-09T14:00:22.699Z,36.30
2022-08-09T14:04:03.338Z,36.20
2022-08-09T14:06:29.594Z,36.10
2022-08-09T14:09:20.424Z,36.00
2022-08-09T14:12:15.539Z,35.90
2022-08-09T14:15:19.618Z,35.80
2022-08-09T14:18:19.619Z,35.80
2022-08-09T14:21:11.084Z,35.70
2022-08-09T14:24:05.502Z,35.70
2022-08-09T14:27:00.154Z,35.70
2022-08-09T14:30:34.594Z,35.80
2022-08-09T14:32:58.182Z,35.80
2022-08-09T14:35:52.972Z,35.80
2022-08-09T14:38:43.329Z,35.80
2022-08-09T14:41:39.627Z,35.80
2022-08-09T14:44:32.675Z,35.80
2022-08-09T14:47:45.441Z,35.80
2022-08-09T14:50:38.269Z,35.80
2022-08-09T14:53:26.981Z,35.80
2022-08-09T14:56:16.768Z,35.80
2022-08-09T14:59:05.204Z,35.80
2022-08-09T15:01:58.313Z,35.80
2022-08-09T15:04:47.813Z,35.70
2022-08-09T15:07:36.412Z,35.60
2022-08-09T15:10:25.475Z,35.60
2022-08-09T15:13:15.451Z,35.60
2022-08-09T15:16:07.870Z,35.60
2022-08-09T15:18:59.560Z,35.60
2022-08-09T15:21:56.832Z,35.50
2022-08-09T15:24:50.450Z,35.50
2022-08-09T15:27:48.132Z,35.40
2022-08-09T15:30:58.730Z,35.40
2022-08-09T15:34:18.102Z,35.30
2022-08-09T15:37:03.846Z,35.30
2022-08-09T15:39:54.921Z,35.20
2022-08-09T15:42:44.766Z,35.20
2022-08-09T15:45:51.982Z,35.10
2022-08-09T15:48:43.070Z,35.10
2022-08-09T15:52:03.580Z,35.10
2022-08-09T15:54:53.864Z,35.10
2022-08-09T15:57:44.172Z,35.10
2022-08-09T16:00:39.923Z,35.10
2022-08-09T16:03:38.117Z,35.00
2022-08-09T16:06:35.412Z,35.00
2022-08-09T16:09:32.688Z,34.90
2022-08-09T16:12:34.483Z,34.90
2022-08-09T16:16:10.350Z,34.80
2022-08-09T16:18:32.620Z,34.80
2022-08-09T16:21:25.455Z,34.80
2022-08-09T16:24:33.639Z,34.70
2022-08-09T16:27:22.726Z,34.60
2022-08-09T16:30:15.302Z,34.60
2022-08-09T16:33:20.069Z,34.60
2022-08-09T16:36:14.492Z,34.60
2022-08-09T16:39:07.027Z,34.60
2022-08-09T16:42:03.542Z,34.50
2022-08-09T16:44:53.287Z,34.50
2022-08-09T16:48:42.027Z,34.50
2022-08-09T16:50:59.056Z,34.50
2022-08-09T16:54:26.166Z,34.40
2022-08-09T16:57:05.761Z,34.40
2022-08-09T16:59:59.156Z,34.40
2022-08-09T17:02:47.756Z,34.30
2022-08-09T17:06:08.307Z,34.20
2022-08-09T17:09:01.632Z,34.10
2022-08-09T17:11:54.023Z,34.10
2022-08-09T17:14:46.294Z,34.10
2022-08-09T17:17:51.005Z,34.00
2022-08-09T17:20:49.119Z,34.00
2022-08-09T17:24:27.545Z,33.90
2022-08-09T17:26:51.982Z,33.90
2022-08-09T17:29:45.530Z,33.90
2022-08-09T17:32:37.500Z,33.80
2022-08-09T17:35:27.113Z,33.80
2022-08-09T17:38:30.459Z,33.70
2022-08-09T17:41:25.691Z,33.60
2022-08-09T17:44:38.363Z,33.50
2022-08-09T17:47:49.174Z,33.50
2022-08-09T17:50:38.519Z,33.50
2022-08-09T17:53:27.539Z,33.40
2022-08-09T17:56:20.561Z,33.30
2022-08-09T17:59:11.706Z,33.20
2022-08-09T18:02:06.197Z,33.20
2022-08-09T18:05:02.415Z,33.10
2022-08-09T18:07:50.872Z,33.00
2022-08-09T18:10:39.380Z,32.90
2022-08-09T18:13:39.363Z,32.90
2022-08-09T18:16:48.797Z,32.80
2022-08-09T18:20:58.762Z,32.70
2022-08-09T18:22:51.212Z,32.50
2022-08-09T18:25:50.016Z,32.40
2022-08-09T18:30:42.692Z,32.30
2022-08-09T18:31:55.796Z,32.10
2022-08-09T18:34:44.885Z,32.00
2022-08-09T18:37:46.931Z,31.80
2022-08-09T18:40:39.089Z,31.60
2022-08-09T18:43:27.788Z,31.40
2022-08-09T18:46:50.383Z,31.10
2022-08-09T18:49:41.649Z,30.90
2022-08-09T18:52:34.936Z,30.60
2022-08-09T18:55:45.642Z,30.40
2022-08-09T18:58:33.919Z,30.20
2022-08-09T19:01:23.807Z,29.90
2022-08-09T19:04:12.310Z,29.70
2022-08-09T19:07:00.753Z,29.50
2022-08-09T19:10:14.369Z,29.30
2022-08-09T19:13:18.437Z,29.10
2022-08-09T19:16:09.314Z,28.90
2022-08-09T19:18:57.798Z,28.70
2022-08-09T19:21:51.688Z,28.50
2022-08-09T19:25:09.526Z,28.30
2022-08-09T19:27:50.996Z,28.20
2022-08-09T19:30:44.570Z,28.00
2022-08-09T19:33:34.730Z,27.80
2022-08-09T19:36:23.334Z,27.70
2022-08-09T19:39:20.868Z,27.50
2022-08-09T19:42:28.246Z,27.50
2022-08-09T19:45:16.892Z,27.20
2022-08-09T19:48:06.369Z,27.10
2022-08-09T19:51:00.819Z,27.00
2022-08-09T19:53:49.332Z,26.90
2022-08-09T19:56:44.574Z,26.80
2022-08-09T19:59:58.828Z,26.60
2022-08-09T20:04:11.715Z,26.50
2022-08-09T20:05:52.811Z,26.40
2022-08-09T20:08:42.704Z,26.30
2022-08-09T20:11:43.236Z,26.20
2022-08-09T20:14:50.009Z,26.20
2022-08-09T20:17:41.590Z,26.00
2022-08-09T20:20:37.644Z,25.90
2022-08-09T20:23:38.792Z,25.80
2022-08-09T20:26:29.955Z,25.70
2022-08-09T20:29:19.280Z,25.70
2022-08-09T20:32:30.002Z,25.60
2022-08-09T20:35:18.228Z,25.50
2022-08-09T20:38:23.811Z,25.50
2022-08-09T20:41:16.077Z,25.40
2022-08-09T20:44:10.369Z,25.30
2022-08-09T20:46:59.214Z,25.30
2022-08-09T20:49:47.733Z,25.40
2022-08-09T20:52:38.394Z,25.20
2022-08-09T20:55:28.051Z,25.20
2022-08-09T20:58:20.334Z,25.10
2022-08-09T21:01:33.039Z,25.10
2022-08-09T21:05:51.714Z,25.00
2022-08-09T21:07:38.526Z,25.00
2022-08-09T21:10:30.633Z,24.90
2022-08-09T21:13:19.151Z,24.90
2022-08-09T21:16:19.496Z,24.90
2022-08-09T21:20:16.947Z,24.90
2022-08-09T21:22:35.970Z,24.90
2022-08-09T21:25:44.258Z,24.90
2022-08-09T21:28:51.859Z,24.90
2022-08-09T21:31:49.469Z,24.90
2022-08-09T21:34:38.222Z,24.90
2022-08-09T21:37:47.108Z,24.90
2022-08-09T21:40:50.694Z,24.90
2022-08-09T21:43:56.692Z,25.00
2022-08-09T21:46:47.951Z,25.00
2022-08-09T21:49:39.700Z,25.10
2022-08-09T21:52:31.310Z,25.10
2022-08-09T21:55:19.732Z,25.20
2022-08-09T21:58:08.635Z,25.20
2022-08-09T22:01:01.983Z,25.30
2022-08-09T22:03:59.493Z,25.30
2022-08-09T22:07:02.001Z,25.40
2022-08-09T22:09:51.554Z,25.50
2022-08-09T22:12:40.525Z,25.50
2022-08-09T22:15:38.424Z,25.50
2022-08-09T22:18:32.817Z,25.60
2022-08-09T22:21:24.345Z,25.60
2022-08-09T22:24:16.647Z,25.70
2022-08-09T22:27:06.512Z,25.70
2022-08-09T22:29:55.127Z,25.80
2022-08-09T22:32:45.950Z,25.80
2022-08-09T22:36:00.018Z,25.80
2022-08-09T22:38:44.412Z,25.80
2022-08-09T22:41:33.212Z,25.90
2022-08-09T22:44:22.935Z,25.90
2022-08-09T22:48:13.623Z,25.90
2022-08-09T22:50:19.925Z,25.90
2022-08-09T22:53:08.381Z,25.90
2022-08-09T22:56:29.691Z,26.00
2022-08-09T22:59:56.715Z,26.00
2022-08-09T23:02:20.129Z,26.00
2022-08-09T23:05:09.746Z,26.00
2022-08-09T23:08:22.592Z,26.00
2022-08-09T23:11:20.971Z,26.00
2022-08-09T23:14:10.086Z,26.00
2022-08-09T23:17:05.801Z,26.00
2022-08-09T23:20:06.567Z,25.90
2022-08-09T23:22:56.798Z,25.90
2022-08-09T23:25:45.230Z,25.90
2022-08-09T23:28:35.035Z,25.90
2022-08-09T23:31:23.436Z,25.90
2022-08-09T23:34:12.020Z,25.90
2022-08-09T23:37:00.503Z,25.90
2022-08-09T23:39:48.976Z,25.90
2022-08-09T23:42:37.466Z,25.90
2022-08-09T23:45:36.951Z,25.90
2022-08-09T23:48:27.136Z,25.90
2022-08-09T23:51:15.613Z,25.90
2022-08-09T23:54:04.208Z,25.90
2022-08-09T23:56:56.147Z,25.90
